Oriskany, Virginia
Current Conditions -  °F | °C
As of 8:54 PM on Saturday 22 Nov 2014 (Local Time) from KROA Reporting Station
Clear Clear  
Wind Chill: 33°   Ceiling: Unl
Heat Index: 33°   Visibility: 10mi
Dew Point: 19°   Wind: 3mph
Humidity: 56%   Direction: 280°W
Pressure: 30.34"   Gusts: NA
Location:  37.62°N, 79.98°W
Report Text: KROA 230154Z 28003KT 10SM CLR 01/M07 A3034 RMK AO2 SLP284 T00061072
Loading
Personal Weather Stations






























Interactive Weather Map New forecast layout! Learn more

10-Day Weather Forecast

Advertisements
Track Severe Weather on mobile